Hoppa till innehåll

METAR väder och rapporter - ENGM

Nedan listas information från vald flygplats. Andra METARs finns längre ned på sidan. Kontakta oss om någon saknas eller skriv in egen ICAO-kod.

Coded METAR: 2024/02/26 16:50 ENGM 261650Z 31003KT 9999 FEW013 M01/M03 Q1014 NOSIG

Weather Report @ ENGM

Issued: 26th Feb 2024 at 17:50 CET

Wind: light air from the Northwest (310 degrees) at 3 knots (3 mph, 6 kph, 2 mps, Force 1)
Visibility: 10km or more
Cloud: a few clouds at 1300 feet
Temperature: 30F / -1C
Dewpoint: 27F / -3C
Humidity: 86%
Pressure: 1014 hPa
Weather: no significant change expected

Coded TAF: 2024/02/26 14:21 TAF AMD TAF AMD ENGM 261416Z 2614/2712 01007KT 9999 BKN012 BECMG 2614/2616 SCT020 PROB40 2700/2710 0500 FZFG VV001 BECMG 2709/2711 19010KT BKN008 TEMPO 2710/2712 BKN015

Weather Forecast @ ENGM

Issued: 26th Feb 2024 at 15:21 CET

Valid : 1st Jan 01:00 until 01:00 CET

01:00 CET
DATA TOO OLD TO BE USEFUL !

Internet delivery of weather data is not secure or reliable enough for operational purposes.

NEVER RELY ON THE OUTPUT OF THIS SCRIPT TO MAKE DECISIONS ABOUT ANYTHING IN WHICH THE WEATHER FORECAST AND ITS INTERPRETATION COULD BE AN ISSUE OF SAFETY.

Andra intressanta METARs

Klicka på önskad rubrik nedan för att visa nuvarande väder för den platsen.

Avstånd från stationen: NO 27kmESGG - Göteborg (Landvetter)
Uppdaterad: 2024-02-26 17:50
 Vind från N
Vind: N 11 km/h
Temperatur: 1°C
Vindavkylning: -2°C
Daggpunkt: 1°C
Luftfuktighet: 100%
Barometer: 1013 hPa
Moln: Övervägande molnigt
Sikt: 10 km
Molninformation: Övervägande molnigt 122 m
2024/02/26 16:50 ESGG 261650Z 36006KT 9999 BKN004 01/01 Q1013
Övervägande molnigt
Övervägande molnigt
  Visa detaljer för Göteborg (Landvetter)
Avstånd från stationen: N 28kmESGP - Göteborg (Säve)
Uppdaterad: 2024-02-26 17:50
 Vind från NNO
Vind: NNO 9 km/h
Temperatur: 3°C
Vindavkylning: 0°C
Daggpunkt: 1°C
Luftfuktighet: 87%
Barometer: 1014 hPa
Moln: Genommulet
Sikt: 10 km
Molninformation: Genommulet 305 m
2024/02/26 16:50 ESGP 261650Z 03005KT 9999 OVC010 03/01 Q1014
Genommulet
Genommulet
  Visa detaljer för Göteborg (Säve)
Avstånd från stationen: NO 419kmESSA - Stockholm (Arlanda)
Uppdaterad: 2024-02-26 17:50
 Vind från ONO
Vind: ONO 6 km/h
Temperatur: 2°C
Daggpunkt: 2°C
Luftfuktighet: 100%
Barometer: 1012 hPa
Moln: Övervägande molnigt
Sikt: 10 km
Molninformation: Övervägande molnigt 152 m
2024/02/26 16:50 ESSA 261650Z 07003KT 9999 BKN005 02/02 Q1012 TEMPO BKN005
Övervägande molnigt
Övervägande molnigt
  Visa detaljer för Stockholm (Arlanda)
Avstånd från stationen: ONO 404kmESSB - Stockholm (Bromma)
Uppdaterad: 2024-02-26 17:50
 Vind från O
Vind: O 7 km/h
Temperatur: 3°C
Vindavkylning: 1°C
Daggpunkt: 3°C
Luftfuktighet: 100%
Barometer: 1013 hPa
Summering: Dimmigt
Moln: Övervägande molnigt
Sikt: 3 km
Molninformation: Övervägande molnigt 61 m
2024/02/26 16:50 ESSB 261650Z 09004KT 3000 BR BKN002 03/03 Q1013
Dimmigt, Övervägande molnigt
Dimmigt
Övervägande molnigt
  Visa detaljer för Stockholm (Bromma)
Avstånd från stationen: ONO 323kmESKN - Stockholm (Skavsta)
Uppdaterad: 2024-02-26 17:50
 Vind från O
Vind: O 4 km/h
Temperatur: 2°C
Daggpunkt: 2°C
Luftfuktighet: 100%
Barometer: 1013 hPa
Moln: Övervägande molnigt
Sikt: 9 km
Molninformation: Några få moln 183 m
Övervägande molnigt 701 m
2024/02/26 16:50 ESKN 261650Z 10002KT 9000 FEW006 BKN023 02/02 Q1013
Övervägande molnigt
Övervägande molnigt
  Visa detaljer för Stockholm (Skavsta)
Avstånd från stationen: SSO 238kmESMS - Malmö flygplats (Sturup)
Uppdaterad: 2024-02-26 17:50
 Vind från NNV
Vind: NNV 9 km/h
Temperatur: 5°C
Vindavkylning: 3°C
Daggpunkt: 1°C
Luftfuktighet: 76%
Barometer: 1012 hPa
Summering: Klart
Sikt: mer än 10 km
2024/02/26 16:50 ESMS 261650Z 34005KT CAVOK 05/01 Q1012
Klart
Klart
  Visa detaljer för Malmö flygplats (Sturup)
Avstånd från stationen: O 382kmESSV - Visby flygplats
Uppdaterad: 2024-02-26 17:50
 Vind från NNV
Vind: NNV 4 km/h
Temperatur: 3°C
Daggpunkt: 3°C
Luftfuktighet: 100%
Barometer: 1012 hPa
Summering: Dimmigt
Moln: Genommulet
Sikt: 1 km
Molninformation: Genommulet 61 m
2024/02/26 16:50 ESSV 261650Z 33002KT 1200 BR OVC002 03/03 Q1012
Dimmigt, Genommulet
Dimmigt
Genommulet
  Visa detaljer för Visby flygplats
Avstånd från stationen: NNO 92kmESGT - Trollhättan
Uppdaterad: 2024-02-26 17:50
 Vind från N
Vind: N 9 km/h
Temperatur: 3°C
Vindavkylning: 0°C
Daggpunkt: 1°C
Luftfuktighet: 87%
Barometer: 1014 hPa
Moln: Övervägande molnigt
Sikt: 10 km
Molninformation: Delvis molnigt 213 m
Övervägande molnigt 274 m
Övervägande molnigt 335 m
2024/02/26 16:50 ESGT 261650Z 36005KT 9999 SCT007 BKN009 BKN011 03/01 Q1014
Övervägande molnigt
Övervägande molnigt
  Visa detaljer för Trollhättan
Avstånd från stationen: ONO 129kmESGJ - Jönköpings flygplats
Uppdaterad: 2024-02-26 17:50
 Vind från N
Vind: N 9 km/h
Temperatur: 2°C
Vindavkylning: -1°C
Daggpunkt: 2°C
Luftfuktighet: 100%
Barometer: 1012 hPa
Moln: Övervägande molnigt
Sikt: 6 km
Molninformation: Övervägande molnigt 152 m
2024/02/26 16:50 ESGJ 261650Z 36005KT 6000 BKN005 02/02 Q1012
Övervägande molnigt
Övervägande molnigt
  Visa detaljer för Jönköpings flygplats
Avstånd från stationen: NNO 229kmESOK - Karlstad
Uppdaterad: 2024-02-26 17:50
 Vind från N
Vind: N 11 km/h
Temperatur: 1°C
Vindavkylning: -2°C
Daggpunkt: 0°C
Luftfuktighet: 93%
Barometer: 1013 hPa
Moln: Genommulet
Sikt: 10 km
Molninformation: Några få moln 183 m
Genommulet 244 m
2024/02/26 16:50 ESOK 261650Z AUTO 01006KT 9999 FEW006/// OVC008/// 01/00 Q1013
Genommulet
Genommulet
  Visa detaljer för Karlstad
Avstånd från stationen: N 643kmESNZ - Östersund (Frösön)
Uppdaterad: 2024-02-26 17:50
 Vind från VNV
Vind: VNV 9 km/h
Temperatur: 0°C
Vindavkylning: -3°C
Daggpunkt: -2°C
Luftfuktighet: 87%
Barometer: 1011 hPa
Moln: Några få moln
Sikt: 10 km
Molninformation: Några få moln 762 m
2024/02/26 16:50 ESNZ 261650Z 30005KT 9999 FEW025 00/M02 Q1011
Några få moln
Några få moln
  Visa detaljer för Östersund (Frösön)
Avstånd från stationen: SSO 216kmEKCH - Köpenhamn (Kastrup)
Uppdaterad: 2024-02-26 17:50
 Vind från N
Vind: N 17 km/h
Temperatur: 6°C
Vindavkylning: 3°C
Daggpunkt: 3°C
Luftfuktighet: 81%
Barometer: 1013 hPa
Moln: Klart
Sikt: 10 km
2024/02/26 16:50 EKCH 261650Z AUTO 35009KT 9999 NCD 06/03 Q1013 NOSIG
Klart
Klart
  Visa detaljer för Köpenhamn (Kastrup)
Avstånd från stationen: SV 263kmEKBI - Billund Airport
Uppdaterad: 2024-02-26 17:50
 Vind från N
Vind: N 11 km/h
Temperatur: 4°C
Vindavkylning: 1°C
Daggpunkt: 1°C
Luftfuktighet: 81%
Barometer: 1014 hPa
Moln: Övervägande molnigt
Sikt: 10 km
Molninformation: Övervägande molnigt 1097 m
2024/02/26 16:50 EKBI 261650Z AUTO 35006KT 320V020 9999 BKN036/// 04/01 Q1014
Övervägande molnigt
Övervägande molnigt
  Visa detaljer för Billund Airport
Avstånd från stationen: N 302kmENGM - Oslo (Gardermoen)
Uppdaterad: 2024-02-26 17:50
 Vind från NV
Vind: NV 6 km/h
Temperatur: -1°C
Daggpunkt: -3°C
Luftfuktighet: 86%
Barometer: 1014 hPa
Moln: Några få moln
Sikt: 10 km
Molninformation: Några få moln 396 m
2024/02/26 16:50 ENGM 261650Z 31003KT 9999 FEW013 M01/M03 Q1014 NOSIG
Några få moln
Några få moln
  Visa detaljer för Oslo (Gardermoen)
Avstånd från stationen: NO 540kmEFMA - Mariehamn / Åland
Uppdaterad: 2024-02-26 17:50
 Vind från varierande
Vind: varierande 2 km/h
Temperatur: 0°C
Daggpunkt: 0°C
Luftfuktighet: 100%
Barometer: 1013 hPa
Summering: Dimma
Moln: Genommulet
Sikt: 0 km
Molninformation: Genommulet 30 m
2024/02/26 16:50 EFMA 261650Z AUTO VRB01KT 0400 R21/0500N FG VV001 00/00 Q1013
Dimma, Genommulet
Dimma
Genommulet
  Visa detaljer för Mariehamn / Åland
Avstånd från stationen: S 558kmEDDT - Berlin (Tegel), Germany
Uppdaterad: 2020-11-09 07:50
Ej aktuell
 Vind från O
Vind: O 11 km/h
Temperatur: 6°C
Vindavkylning: 4°C
Daggpunkt: 5°C
Luftfuktighet: 93%
Barometer: 1027 hPa
Summering: Dimmigt
Moln: Genommulet
Sikt: 3 km
Molninformation: Genommulet 91 m
2020/11/09 06:50 EDDT 090650Z 09006KT 050V120 3000 BR OVC003 06/05 Q1027
Dimmigt, Genommulet
Dimmigt
Genommulet
  Visa detaljer för Berlin (Tegel), Germany
Avstånd från stationen: SV 737kmEHAM - Amsterdam (Schiphol)
Uppdaterad: 2024-02-26 17:55
 Vind från NNO
Vind: NNO 30 km/h
Vindby: 48 km/h
Temperatur: 6°C
Vindavkylning: 2°C
Daggpunkt: 3°C
Luftfuktighet: 81%
Barometer: 1011 hPa
Moln: Delvis molnigt
Sikt: 10 km
Molninformation: Delvis molnigt 488 m
2024/02/26 16:55 EHAM 261655Z 03016G26KT 350V070 9999 SCT016 06/03 Q1011 NOSIG
Delvis molnigt
Delvis molnigt
  Visa detaljer för Amsterdam (Schiphol)
Avstånd från stationen: ONO 808kmEFHK - Helsingfors (Vantaa)
Uppdaterad: 2024-02-26 17:50
 Vind från NNO
Vind: NNO 6 km/h
Temperatur: 0°C
Daggpunkt: 0°C
Luftfuktighet: 100%
Barometer: 1011 hPa
Summering: Lätt duggregn, Dimmigt
Moln: Övervägande molnigt
Sikt: 1 km
Molninformation: Övervägande molnigt 61 m
2024/02/26 16:50 EFHK 261650Z 02003KT 1400 R04L/P2000N R15/P2000N R22L/P2000N R22R/P2000N -DZ BR BKN002 00/00 Q1011 BECMG 2000
Lätt duggregn, Dimmigt, Övervägande molnigt
Lätt duggregn
Dimmigt
Övervägande molnigt
  Visa detaljer för Helsingfors (Vantaa)
Avstånd från stationen: SSV 537kmEDDW - Bremen
Uppdaterad: 2024-02-26 17:50
 Vind från NNO
Vind: NNO 28 km/h
Temperatur: 5°C
Vindavkylning: 1°C
Daggpunkt: 3°C
Luftfuktighet: 87%
Barometer: 1010 hPa
Summering: Klart
Sikt: mer än 10 km
2024/02/26 16:50 EDDW 261650Z AUTO 03015KT CAVOK 05/03 Q1010 NOSIG
Klart
Klart
  Visa detaljer för Bremen
Avstånd från stationen: SSV 861kmEDDF - Frankfurt am Main
Uppdaterad: 2024-02-26 17:50
 Vind från N
Vind: N 11 km/h
Temperatur: 10°C
Vindavkylning: 8°C
Daggpunkt: 6°C
Luftfuktighet: 76%
Barometer: 1003 hPa
Summering: Klart
Sikt: mer än 10 km
2024/02/26 16:50 EDDF 261650Z AUTO 01006KT 350V050 CAVOK 10/06 Q1003 NOSIG
Klart
Klart
  Visa detaljer för Frankfurt am Main
Avstånd från stationen: SV 880kmEBBR - Bryssel international
Uppdaterad: 2024-02-26 17:50
 Vind från NNO
Vind: NNO 31 km/h
Temperatur: 5°C
Vindavkylning: 0°C
Daggpunkt: 4°C
Luftfuktighet: 93%
Barometer: 1007 hPa
Summering: Lätt regn
Moln: Övervägande molnigt
Sikt: 10 km
Molninformation: Några få moln 274 m
Övervägande molnigt 396 m
2024/02/26 16:50 EBBR 261650Z 03017KT 9999 -RA FEW009 BKN013 05/04 Q1007 NOSIG
Lätt regn, Övervägande molnigt
Lätt regn
Övervägande molnigt
  Visa detaljer för Bryssel international
Avstånd från stationen: SV 738kmEHAM - Amsterdam (Schiphol)
Uppdaterad: 2024-02-26 17:55
 Vind från NNO
Vind: NNO 30 km/h
Vindby: 48 km/h
Temperatur: 6°C
Vindavkylning: 2°C
Daggpunkt: 3°C
Luftfuktighet: 81%
Barometer: 1011 hPa
Moln: Delvis molnigt
Sikt: 10 km
Molninformation: Delvis molnigt 488 m
2024/02/26 16:55 EHAM 261655Z 03016G26KT 350V070 9999 SCT016 06/03 Q1011 NOSIG
Delvis molnigt
Delvis molnigt
  Visa detaljer för Amsterdam (Schiphol)
Avstånd från stationen: SV 1044kmEGLL - London (Heathrow)
Uppdaterad: 2024-02-26 17:50
 Vind från N
Vind: N 20 km/h
Temperatur: 8°C
Vindavkylning: 4°C
Daggpunkt: 0°C
Luftfuktighet: 57%
Barometer: 1015 hPa
Moln: Övervägande molnigt
Sikt: 10 km
Molninformation: Övervägande molnigt 1158 m
2024/02/26 16:50 EGLL 261650Z AUTO 01011KT 350V060 9999 BKN038 08/M00 Q1015
Övervägande molnigt
Övervägande molnigt
  Visa detaljer för London (Heathrow)
Avstånd från stationen: SV 1132kmLFPG - Paris (Charles de Gaulle)
Uppdaterad: 2024-02-26 18:00
 Vind från NNO
Vind: NNO 41 km/h
Temperatur: 6°C
Vindavkylning: 1°C
Daggpunkt: 5°C
Luftfuktighet: 93%
Barometer: 1002 hPa
Summering: Lätt regn
Moln: Genommulet
Sikt: 10 km
Molninformation: Genommulet 274 m
2024/02/26 17:00 LFPG 261700Z 03022KT 9999 -RA OVC009 06/05 Q1002 NOSIG
Lätt regn, Genommulet
Lätt regn
Genommulet
  Visa detaljer för Paris (Charles de Gaulle)
Avstånd från stationen: SSV 1142kmLSZH - Zürich Airport
Uppdaterad: 2024-02-26 17:50
 Vind från N
Vind: N 9 km/h
Temperatur: 10°C
Vindavkylning: 9°C
Daggpunkt: 2°C
Luftfuktighet: 58%
Barometer: 1000 hPa
Moln: Övervägande molnigt
Sikt: 10 km
Molninformation: Några få moln 2134 m
Övervägande molnigt 2286 m
2024/02/26 16:50 LSZH 261650Z 01005KT 340V040 9999 FEW070 BKN075 10/02 Q1000 NOSIG
Övervägande molnigt
Övervägande molnigt
  Visa detaljer för Zürich Airport
Avstånd från stationen: S 1749kmLIRF - Rome Airport (Fiumicino - Leonardo da Vinci)
Uppdaterad: 2024-02-26 17:50
 Vind från SO
Vind: SO 31 km/h
Temperatur: 11°C
Daggpunkt: 9°C
Luftfuktighet: 88%
Barometer: 1005 hPa
Summering: Lätt regn
Moln: Delvis molnigt
Sikt: 7 km
Molninformation: Delvis molnigt 457 m
Delvis molnigt 610 m
2024/02/26 16:50 LIRF 261650Z 13017KT 7000 -RA SCT015 SCT020 11/09 Q1005 NOSIG
Lätt regn, Delvis molnigt
Lätt regn
Delvis molnigt
  Visa detaljer för Rome Airport (Fiumicino - Leonardo da Vinci)
Avstånd från stationen: SO 2679kmLTAI - Antalya
Uppdaterad: 2024-02-26 17:50
 Vind från V
Vind: V 11 km/h
Temperatur: 12°C
Daggpunkt: 12°C
Luftfuktighet: 100%
Barometer: 1015 hPa
Summering: Lätt regn, Showers
Moln: Övervägande molnigt
Sikt: 10 km
Molninformation: Några få moln 610 m
Övervägande molnigt 762 m
2024/02/26 16:50 LTAI 261650Z 28006KT 9999 -SHRA FEW020CB BKN025 12/12 Q1015 NOSIG
Lätt regn, Showers, Övervägande molnigt
Lätt regn
Showers
Övervägande molnigt
  Visa detaljer för Antalya
Avstånd från stationen: VSV 6074kmKJFK - New Your (JFK)
Uppdaterad: 2024-02-26 17:51
 Vind från SSV
Vind: SSV 24 km/h
Temperatur: 6°C
Vindavkylning: 2°C
Daggpunkt: 1°C
Luftfuktighet: 71%
Barometer: 1017.9 hPa
Summering: Lätt regn
Moln: Övervägande molnigt
Sikt: 16 km
Molninformation: Några få moln 1524 m
Övervägande molnigt 2743 m
Övervägande molnigt 7620 m
2024/02/26 16:51 KJFK 261651Z 20013KT 10SM -RA FEW050 BKN090 BKN250 06/01 A3006 RMK AO2 RAB48 SLP180 P0000 T00610011
Lätt regn, Övervägande molnigt
Lätt regn
Övervägande molnigt
  Visa detaljer för New Your (JFK)
Avstånd från stationen: VSV 8848kmKLAX - Los Angeles International Airport
Uppdaterad: 2024-02-26 17:53
 Vind från S
Vind: S 6 km/h
Temperatur: 14°C
Daggpunkt: 11°C
Luftfuktighet: 82%
Barometer: 1017.9 hPa
Summering: Disigt
Moln: Genommulet
Sikt: 10 km
Molninformation: Några få moln 305 m
Övervägande molnigt 3658 m
Genommulet 4877 m
2024/02/26 16:53 KLAX 261653Z 19003KT 6SM HZ FEW010 BKN120 OVC160 14/11 A3006 RMK AO2 SLP178 T01390111 $
Disigt, Genommulet
Disigt
Genommulet
  Visa detaljer för Los Angeles International Airport
Avstånd från stationen: SO 4968kmOMDB - Dubai International Airport
Uppdaterad: 2024-02-26 18:00
 Vind från V
Vind: V 15 km/h
Temperatur: 22°C
Daggpunkt: 14°C
Luftfuktighet: 61%
Barometer: 1012 hPa
Moln: Delvis molnigt
Sikt: 10 km
Molninformation: Delvis molnigt 914 m
2024/02/26 17:00 OMDB 261700Z 26008KT 220V280 9999 SCT030 22/14 Q1012 NOSIG
Delvis molnigt
Delvis molnigt
  Visa detaljer för Dubai International Airport
Avstånd från stationen: OSO 8570kmRJTT - Tokyo International Airport
Uppdaterad: 2024-02-26 18:00
 Vind från VNV
Vind: VNV 31 km/h
Temperatur: 5°C
Vindavkylning: 0°C
Daggpunkt: -7°C
Luftfuktighet: 42%
Barometer: 1013 hPa
Summering: Klart
Sikt: mer än 10 km
2024/02/26 17:00 RJTT 261700Z 30017KT CAVOK 05/M07 Q1013 NOSIG
Klart
Klart
  Visa detaljer för Tokyo International Airport
Avstånd från stationen: OSO 7125kmZBAA - Peking (Beijing Capital)
Uppdaterad: 2024-02-26 18:00
 Vind från SSO
Vind: SSO 11 km/h
Temperatur: 0°C
Vindavkylning: -4°C
Daggpunkt: -9°C
Luftfuktighet: 51%
Barometer: 1032 hPa
Summering: Klart
Sikt: mer än 10 km
2024/02/26 17:00 ZBAA 261700Z 16003MPS CAVOK M00/M09 Q1032 NOSIG
Klart
Klart
  Visa detaljer för Peking (Beijing Capital)
VÄDER KURIOSA -  Weather TermsWaterspout - In general, a tornado occurring over water. Specifically, it refers to a small, relatively weak rotating column of air over water beneath a towering cumulus or cumulonimbus cloud. They occasionally occur over Lake Michigan in late summer with unusually cold air aloft.